sensor_id;sensor_type;location;lat;lon;timestamp;pressure;altitude;pressure_sealevel;temperature;humidity
62926;BME280;55732;52.248;-0.844;2023-06-24T00:02:02;101448.95;;;19.50;72.46
62926;BME280;55732;52.248;-0.844;2023-06-24T00:04:28;101449.16;;;19.48;72.47
62926;BME280;55732;52.248;-0.844;2023-06-24T00:06:53;101449.27;;;19.44;72.70
62926;BME280;55732;52.248;-0.844;2023-06-24T00:09:24;101444.39;;;19.37;72.89
62926;BME280;55732;52.248;-0.844;2023-06-24T00:11:49;101448.05;;;19.34;73.10
62926;BME280;55732;52.248;-0.844;2023-06-24T00:14:14;101445.29;;;19.30;73.21
62926;BME280;55732;52.248;-0.844;2023-06-24T00:16:40;101448.91;;;19.28;73.34
62926;BME280;55732;52.248;-0.844;2023-06-24T00:19:06;101449.14;;;19.26;73.53
62926;BME280;55732;52.248;-0.844;2023-06-24T00:21:33;101447.23;;;19.24;73.70
62926;BME280;55732;52.248;-0.844;2023-06-24T00:24:00;101448.19;;;19.22;73.81
62926;BME280;55732;52.248;-0.844;2023-06-24T00:26:27;101442.54;;;19.18;73.93
62926;BME280;55732;52.248;-0.844;2023-06-24T00:28:53;101442.77;;;19.15;74.03
62926;BME280;55732;52.248;-0.844;2023-06-24T00:31:19;101437.66;;;19.12;74.22
62926;BME280;55732;52.248;-0.844;2023-06-24T00:33:45;101437.94;;;19.09;74.31
62926;BME280;55732;52.248;-0.844;2023-06-24T00:36:10;101435.32;;;19.06;74.37
62926;BME280;55732;52.248;-0.844;2023-06-24T00:38:40;101438.25;;;19.02;74.54
62926;BME280;55732;52.248;-0.844;2023-06-24T00:41:06;101439.08;;;18.98;74.67
62926;BME280;55732;52.248;-0.844;2023-06-24T00:43:32;101440.58;;;18.95;74.79
62926;BME280;55732;52.248;-0.844;2023-06-24T00:45:59;101437.41;;;18.92;74.74
62926;BME280;55732;52.248;-0.844;2023-06-24T00:48:24;101439.98;;;18.89;75.01
62926;BME280;55732;52.248;-0.844;2023-06-24T00:50:51;101439.00;;;18.86;75.13
62926;BME280;55732;52.248;-0.844;2023-06-24T00:53:17;101442.98;;;18.83;75.29
62926;BME280;55732;52.248;-0.844;2023-06-24T00:55:42;101441.25;;;18.80;75.47
62926;BME280;55732;52.248;-0.844;2023-06-24T00:58:11;101443.42;;;18.78;75.63
62926;BME280;55732;52.248;-0.844;2023-06-24T01:00:42;101446.19;;;18.75;75.68
62926;BME280;55732;52.248;-0.844;2023-06-24T01:03:08;101446.44;;;18.71;75.79
62926;BME280;55732;52.248;-0.844;2023-06-24T01:05:34;101441.14;;;18.68;76.06
62926;BME280;55732;52.248;-0.844;2023-06-24T01:08:01;101434.63;;;18.64;76.14
62926;BME280;55732;52.248;-0.844;2023-06-24T01:10:27;101432.35;;;18.63;76.20
62926;BME280;55732;52.248;-0.844;2023-06-24T01:12:52;101432.95;;;18.59;76.31
62926;BME280;55732;52.248;-0.844;2023-06-24T01:15:19;101431.73;;;18.56;76.55
62926;BME280;55732;52.248;-0.844;2023-06-24T01:18:07;101427.73;;;18.52;76.75
62926;BME280;55732;52.248;-0.844;2023-06-24T01:20:42;101426.70;;;18.50;76.89
62926;BME280;55732;52.248;-0.844;2023-06-24T01:34:26;101419.30;;;18.37;77.37
62926;BME280;55732;52.248;-0.844;2023-06-24T01:37:19;101423.90;;;18.37;77.47
62926;BME280;55732;52.248;-0.844;2023-06-24T01:40:06;101426.46;;;18.34;77.53
62926;BME280;55732;52.248;-0.844;2023-06-24T01:42:41;101426.86;;;18.32;77.75
62926;BME280;55732;52.248;-0.844;2023-06-24T01:45:10;101427.27;;;18.30;77.75
62926;BME280;55732;52.248;-0.844;2023-06-24T01:47:47;101427.30;;;18.29;77.76
62926;BME280;55732;52.248;-0.844;2023-06-24T01:50:14;101427.15;;;18.27;77.83
62926;BME280;55732;52.248;-0.844;2023-06-24T01:52:43;101425.61;;;18.24;77.96
62926;BME280;55732;52.248;-0.844;2023-06-24T01:55:11;101425.83;;;18.21;78.04
62926;BME280;55732;52.248;-0.844;2023-06-24T01:57:38;101424.08;;;18.19;78.17
62926;BME280;55732;52.248;-0.844;2023-06-24T02:00:07;101424.48;;;18.17;78.25
62926;BME280;55732;52.248;-0.844;2023-06-24T02:02:34;101424.02;;;18.13;78.32
62926;BME280;55732;52.248;-0.844;2023-06-24T02:05:02;101421.23;;;18.11;78.39
62926;BME280;55732;52.248;-0.844;2023-06-24T02:07:28;101424.48;;;18.08;78.47
62926;BME280;55732;52.248;-0.844;2023-06-24T02:09:55;101423.84;;;18.04;78.53
62926;BME280;55732;52.248;-0.844;2023-06-24T02:12:23;101423.91;;;18.00;78.61
62926;BME280;55732;52.248;-0.844;2023-06-24T02:14:50;101427.16;;;17.97;78.66
62926;BME280;55732;52.248;-0.844;2023-06-24T02:17:17;101428.24;;;17.97;78.67
62926;BME280;55732;52.248;-0.844;2023-06-24T02:19:43;101429.88;;;17.95;78.75
62926;BME280;55732;52.248;-0.844;2023-06-24T02:22:09;101434.74;;;17.93;78.86
62926;BME280;55732;52.248;-0.844;2023-06-24T02:24:36;101434.60;;;17.91;79.02
62926;BME280;55732;52.248;-0.844;2023-06-24T02:27:03;101435.69;;;17.90;78.97
62926;BME280;55732;52.248;-0.844;2023-06-24T02:29:30;101436.06;;;17.89;79.08
62926;BME280;55732;52.248;-0.844;2023-06-24T02:31:57;101433.95;;;17.87;79.05
62926;BME280;55732;52.248;-0.844;2023-06-24T02:34:23;101436.28;;;17.86;79.13
62926;BME280;55732;52.248;-0.844;2023-06-24T02:36:49;101437.37;;;17.85;79.14
62926;BME280;55732;52.248;-0.844;2023-06-24T02:39:15;101440.80;;;17.83;79.23
62926;BME280;55732;52.248;-0.844;2023-06-24T02:41:40;101439.61;;;17.80;79.23
62926;BME280;55732;52.248;-0.844;2023-06-24T02:44:06;101437.52;;;17.77;79.25
62926;BME280;55732;52.248;-0.844;2023-06-24T02:46:33;101436.86;;;17.74;79.35
62926;BME280;55732;52.248;-0.844;2023-06-24T02:49:01;101434.23;;;17.71;79.54
62926;BME280;55732;52.248;-0.844;2023-06-24T02:51:28;101438.34;;;17.70;79.65
62926;BME280;55732;52.248;-0.844;2023-06-24T02:53:55;101441.42;;;17.68;79.70
62926;BME280;55732;52.248;-0.844;2023-06-24T02:56:24;101443.74;;;17.67;79.71
62926;BME280;55732;52.248;-0.844;2023-06-24T02:58:52;101444.85;;;17.65;79.69
62926;BME280;55732;52.248;-0.844;2023-06-24T03:01:18;101444.15;;;17.63;79.73
62926;BME280;55732;52.248;-0.844;2023-06-24T03:03:53;101445.25;;;17.59;79.60
62926;BME280;55732;52.248;-0.844;2023-06-24T03:06:19;101444.45;;;17.55;79.74
62926;BME280;55732;52.248;-0.844;2023-06-24T03:08:46;101442.70;;;17.52;79.80
62926;BME280;55732;52.248;-0.844;2023-06-24T03:11:13;101439.16;;;17.51;79.74
62926;BME280;55732;52.248;-0.844;2023-06-24T03:13:39;101437.75;;;17.50;79.92
62926;BME280;55732;52.248;-0.844;2023-06-24T03:16:05;101438.15;;;17.47;80.06
62926;BME280;55732;52.248;-0.844;2023-06-24T03:18:30;101437.86;;;17.44;80.17
62926;BME280;55732;52.248;-0.844;2023-06-24T03:20:56;101433.26;;;17.42;80.18
62926;BME280;55732;52.248;-0.844;2023-06-24T03:23:21;101424.38;;;17.40;80.29
62926;BME280;55732;52.248;-0.844;2023-06-24T03:25:46;101427.62;;;17.38;80.35
62926;BME280;55732;52.248;-0.844;2023-06-24T03:28:12;101422.67;;;17.36;80.10
62926;BME280;55732;52.248;-0.844;2023-06-24T03:30:37;101426.46;;;17.34;80.10
62926;BME280;55732;52.248;-0.844;2023-06-24T03:33:03;101421.67;;;17.31;80.29
62926;BME280;55732;52.248;-0.844;2023-06-24T03:35:28;101422.79;;;17.28;80.33
62926;BME280;55732;52.248;-0.844;2023-06-24T03:37:55;101425.48;;;17.26;80.35
62926;BME280;55732;52.248;-0.844;2023-06-24T03:40:20;101423.08;;;17.21;80.39
62926;BME280;55732;52.248;-0.844;2023-06-24T03:42:46;101422.21;;;17.19;80.44
62926;BME280;55732;52.248;-0.844;2023-06-24T03:45:11;101426.87;;;17.17;80.69
62926;BME280;55732;52.248;-0.844;2023-06-24T03:47:36;101427.06;;;17.16;80.87
62926;BME280;55732;52.248;-0.844;2023-06-24T03:50:04;101424.77;;;17.15;81.00
62926;BME280;55732;52.248;-0.844;2023-06-24T03:52:30;101426.04;;;17.13;81.07
62926;BME280;55732;52.248;-0.844;2023-06-24T03:54:55;101428.02;;;17.12;80.97
62926;BME280;55732;52.248;-0.844;2023-06-24T03:57:20;101429.15;;;17.08;81.04
62926;BME280;55732;52.248;-0.844;2023-06-24T03:59:46;101428.84;;;17.04;81.02
62926;BME280;55732;52.248;-0.844;2023-06-24T04:02:12;101433.13;;;17.03;81.27
62926;BME280;55732;52.248;-0.844;2023-06-24T04:04:39;101435.08;;;17.04;81.27
62926;BME280;55732;52.248;-0.844;2023-06-24T04:07:04;101438.46;;;17.04;81.22
62926;BME280;55732;52.248;-0.844;2023-06-24T04:09:34;101440.40;;;17.05;81.35
62926;BME280;55732;52.248;-0.844;2023-06-24T04:12:00;101442.50;;;17.07;81.28
62926;BME280;55732;52.248;-0.844;2023-06-24T04:14:26;101446.05;;;17.09;81.27
62926;BME280;55732;52.248;-0.844;2023-06-24T04:16:51;101450.07;;;17.12;81.43
62926;BME280;55732;52.248;-0.844;2023-06-24T04:19:17;101451.80;;;17.16;81.56
62926;BME280;55732;52.248;-0.844;2023-06-24T04:21:42;101456.20;;;17.20;81.60
62926;BME280;55732;52.248;-0.844;2023-06-24T04:24:07;101450.07;;;17.24;81.38
62926;BME280;55732;52.248;-0.844;2023-06-24T04:26:33;101453.42;;;17.26;81.43
62926;BME280;55732;52.248;-0.844;2023-06-24T04:28:58;101446.98;;;17.30;81.48
62926;BME280;55732;52.248;-0.844;2023-06-24T04:31:23;101445.15;;;17.33;81.45
62926;BME280;55732;52.248;-0.844;2023-06-24T04:33:49;101443.84;;;17.36;81.35
62926;BME280;55732;52.248;-0.844;2023-06-24T04:36:14;101444.67;;;17.40;81.46
62926;BME280;55732;52.248;-0.844;2023-06-24T04:38:39;101441.77;;;17.44;81.53
62926;BME280;55732;52.248;-0.844;2023-06-24T04:41:05;101442.21;;;17.49;81.44
62926;BME280;55732;52.248;-0.844;2023-06-24T04:43:30;101442.15;;;17.53;81.36
62926;BME280;55732;52.248;-0.844;2023-06-24T04:45:56;101446.20;;;17.57;81.41
62926;BME280;55732;52.248;-0.844;2023-06-24T04:48:25;101447.72;;;17.62;81.41
62926;BME280;55732;52.248;-0.844;2023-06-24T04:50:50;101448.76;;;17.66;81.40
62926;BME280;55732;52.248;-0.844;2023-06-24T04:53:15;101449.74;;;17.70;81.37
62926;BME280;55732;52.248;-0.844;2023-06-24T04:55:41;101454.66;;;17.74;81.11
62926;BME280;55732;52.248;-0.844;2023-06-24T04:58:06;101456.75;;;17.78;81.19
62926;BME280;55732;52.248;-0.844;2023-06-24T05:00:32;101452.42;;;17.81;81.09
62926;BME280;55732;52.248;-0.844;2023-06-24T05:02:57;101455.91;;;17.84;81.14
62926;BME280;55732;52.248;-0.844;2023-06-24T05:05:23;101450.13;;;17.89;81.15
62926;BME280;55732;52.248;-0.844;2023-06-24T05:07:48;101448.77;;;17.95;81.00
62926;BME280;55732;52.248;-0.844;2023-06-24T05:10:14;101448.52;;;17.99;80.78
62926;BME280;55732;52.248;-0.844;2023-06-24T05:12:40;101448.80;;;18.04;80.61
62926;BME280;55732;52.248;-0.844;2023-06-24T05:15:05;101449.58;;;18.09;80.50
62926;BME280;55732;52.248;-0.844;2023-06-24T05:17:31;101447.51;;;18.16;80.42
62926;BME280;55732;52.248;-0.844;2023-06-24T05:19:56;101445.42;;;18.22;80.19
62926;BME280;55732;52.248;-0.844;2023-06-24T05:22:22;101446.16;;;18.30;80.24
62926;BME280;55732;52.248;-0.844;2023-06-24T05:24:47;101445.77;;;18.41;80.36
62926;BME280;55732;52.248;-0.844;2023-06-24T05:27:12;101443.09;;;18.51;80.17
62926;BME280;55732;52.248;-0.844;2023-06-24T05:29:38;101450.27;;;18.57;79.86
62926;BME280;55732;52.248;-0.844;2023-06-24T05:32:04;101445.75;;;18.62;79.61
62926;BME280;55732;52.248;-0.844;2023-06-24T05:34:30;101446.16;;;18.67;79.41
62926;BME280;55732;52.248;-0.844;2023-06-24T05:36:55;101449.63;;;18.72;79.42
62926;BME280;55732;52.248;-0.844;2023-06-24T05:39:21;101437.59;;;18.75;79.22
62926;BME280;55732;52.248;-0.844;2023-06-24T05:41:46;101440.04;;;18.78;79.17
62926;BME280;55732;52.248;-0.844;2023-06-24T05:44:14;101438.19;;;18.81;79.18
62926;BME280;55732;52.248;-0.844;2023-06-24T05:46:39;101436.67;;;18.86;79.29
62926;BME280;55732;52.248;-0.844;2023-06-24T05:49:05;101434.39;;;18.92;78.90
62926;BME280;55732;52.248;-0.844;2023-06-24T05:51:30;101435.16;;;18.98;78.83
62926;BME280;55732;52.248;-0.844;2023-06-24T05:53:55;101436.80;;;19.03;78.53
62926;BME280;55732;52.248;-0.844;2023-06-24T05:56:23;101440.27;;;19.08;78.50
62926;BME280;55732;52.248;-0.844;2023-06-24T05:58:48;101444.41;;;19.15;78.45
62926;BME280;55732;52.248;-0.844;2023-06-24T06:01:14;101438.54;;;19.21;78.19
62926;BME280;55732;52.248;-0.844;2023-06-24T06:03:39;101439.63;;;19.28;77.85
62926;BME280;55732;52.248;-0.844;2023-06-24T06:06:05;101445.52;;;19.35;77.70
62926;BME280;55732;52.248;-0.844;2023-06-24T06:08:30;101447.63;;;19.45;77.66
62926;BME280;55732;52.248;-0.844;2023-06-24T06:10:56;101448.61;;;19.50;77.32
62926;BME280;55732;52.248;-0.844;2023-06-24T06:13:21;101447.65;;;19.52;77.31
62926;BME280;55732;52.248;-0.844;2023-06-24T06:15:47;101443.42;;;19.58;77.14
62926;BME280;55732;52.248;-0.844;2023-06-24T06:18:12;101444.50;;;19.64;77.00
62926;BME280;55732;52.248;-0.844;2023-06-24T06:20:38;101448.28;;;19.70;76.86
62926;BME280;55732;52.248;-0.844;2023-06-24T06:23:03;101446.55;;;19.75;76.74
62926;BME280;55732;52.248;-0.844;2023-06-24T06:25:28;101453.38;;;19.80;76.68
62926;BME280;55732;52.248;-0.844;2023-06-24T06:27:54;101454.63;;;19.88;76.64
62926;BME280;55732;52.248;-0.844;2023-06-24T06:30:19;101441.45;;;19.93;76.29
62926;BME280;55732;52.248;-0.844;2023-06-24T06:32:45;101439.64;;;20.00;76.03
62926;BME280;55732;52.248;-0.844;2023-06-24T06:35:10;101440.27;;;20.09;75.95
62926;BME280;55732;52.248;-0.844;2023-06-24T06:37:35;101437.33;;;20.19;75.73
62926;BME280;55732;52.248;-0.844;2023-06-24T06:40:02;101426.21;;;20.27;75.40
62926;BME280;55732;52.248;-0.844;2023-06-24T06:42:28;101426.97;;;20.58;74.89
62926;BME280;55732;52.248;-0.844;2023-06-24T06:44:54;101445.15;;;21.02;74.13
62926;BME280;55732;52.248;-0.844;2023-06-24T06:47:19;101445.09;;;21.34;73.63
62926;BME280;55732;52.248;-0.844;2023-06-24T06:49:45;101450.14;;;21.49;73.07
62926;BME280;55732;52.248;-0.844;2023-06-24T06:52:10;101458.78;;;21.58;72.66
62926;BME280;55732;52.248;-0.844;2023-06-24T06:54:35;101455.05;;;21.62;72.53
62926;BME280;55732;52.248;-0.844;2023-06-24T06:57:02;101457.70;;;21.65;72.36
62926;BME280;55732;52.248;-0.844;2023-06-24T06:59:29;101461.17;;;21.68;72.01
62926;BME280;55732;52.248;-0.844;2023-06-24T07:01:54;101458.88;;;21.72;71.55
62926;BME280;55732;52.248;-0.844;2023-06-24T07:04:19;101462.23;;;21.79;71.32
62926;BME280;55732;52.248;-0.844;2023-06-24T07:06:45;101463.42;;;21.81;70.93
62926;BME280;55732;52.248;-0.844;2023-06-24T07:09:10;101468.04;;;21.87;71.13
62926;BME280;55732;52.248;-0.844;2023-06-24T07:11:36;101466.71;;;21.94;71.07
62926;BME280;55732;52.248;-0.844;2023-06-24T07:14:01;101471.53;;;22.02;71.02
62926;BME280;55732;52.248;-0.844;2023-06-24T07:16:26;101474.02;;;22.07;70.75
62926;BME280;55732;52.248;-0.844;2023-06-24T07:18:52;101474.02;;;22.13;70.53
62926;BME280;55732;52.248;-0.844;2023-06-24T07:21:17;101472.86;;;22.15;70.25
62926;BME280;55732;52.248;-0.844;2023-06-24T07:23:42;101476.88;;;22.13;69.98
62926;BME280;55732;52.248;-0.844;2023-06-24T07:26:08;101478.40;;;22.10;70.23
62926;BME280;55732;52.248;-0.844;2023-06-24T07:28:33;101477.40;;;22.03;70.13
62926;BME280;55732;52.248;-0.844;2023-06-24T07:30:58;101483.66;;;21.97;70.39
62926;BME280;55732;52.248;-0.844;2023-06-24T07:33:24;101483.48;;;21.92;70.60
62926;BME280;55732;52.248;-0.844;2023-06-24T07:35:49;101487.36;;;21.89;70.73
62926;BME280;55732;52.248;-0.844;2023-06-24T07:38:15;101491.95;;;21.86;70.55
62926;BME280;55732;52.248;-0.844;2023-06-24T07:40:40;101494.30;;;21.80;70.97
62926;BME280;55732;52.248;-0.844;2023-06-24T07:43:05;101493.54;;;21.75;70.97
62926;BME280;55732;52.248;-0.844;2023-06-24T07:45:31;101491.23;;;21.70;71.22
62926;BME280;55732;52.248;-0.844;2023-06-24T07:47:56;101498.84;;;21.68;71.43
62926;BME280;55732;52.248;-0.844;2023-06-24T07:50:22;101500.34;;;21.65;71.38
62926;BME280;55732;52.248;-0.844;2023-06-24T07:52:47;101505.45;;;21.62;71.60
62926;BME280;55732;52.248;-0.844;2023-06-24T07:55:12;101501.02;;;21.61;71.74
62926;BME280;55732;52.248;-0.844;2023-06-24T07:57:38;101499.95;;;21.60;71.75
62926;BME280;55732;52.248;-0.844;2023-06-24T08:00:06;101498.80;;;21.57;71.50
62926;BME280;55732;52.248;-0.844;2023-06-24T08:02:34;101498.35;;;21.55;71.74
62926;BME280;55732;52.248;-0.844;2023-06-24T08:05:00;101494.17;;;21.56;72.10
62926;BME280;55732;52.248;-0.844;2023-06-24T08:07:25;101494.42;;;21.59;72.01
62926;BME280;55732;52.248;-0.844;2023-06-24T08:09:50;101494.64;;;21.64;71.76
62926;BME280;55732;52.248;-0.844;2023-06-24T08:12:16;101492.34;;;21.69;71.69
62926;BME280;55732;52.248;-0.844;2023-06-24T08:14:41;101493.08;;;21.74;71.72
62926;BME280;55732;52.248;-0.844;2023-06-24T08:17:06;101497.14;;;21.75;71.53
62926;BME280;55732;52.248;-0.844;2023-06-24T08:19:31;101499.70;;;21.79;71.61
62926;BME280;55732;52.248;-0.844;2023-06-24T08:21:57;101498.59;;;21.85;71.60
62926;BME280;55732;52.248;-0.844;2023-06-24T08:24:22;101494.70;;;21.89;71.47
62926;BME280;55732;52.248;-0.844;2023-06-24T08:26:47;101492.30;;;21.91;71.17
62926;BME280;55732;52.248;-0.844;2023-06-24T08:29:13;101488.06;;;21.95;71.31
62926;BME280;55732;52.248;-0.844;2023-06-24T08:31:39;101497.55;;;22.12;71.21
62926;BME280;55732;52.248;-0.844;2023-06-24T08:34:04;101493.69;;;22.24;70.83
62926;BME280;55732;52.248;-0.844;2023-06-24T08:36:32;101493.10;;;22.36;70.87
62926;BME280;55732;52.248;-0.844;2023-06-24T08:38:57;101491.12;;;22.51;70.40
62926;BME280;55732;52.248;-0.844;2023-06-24T08:41:24;101489.23;;;22.68;70.16
62926;BME280;55732;52.248;-0.844;2023-06-24T08:43:53;101487.75;;;22.80;69.57
62926;BME280;55732;52.248;-0.844;2023-06-24T08:46:24;101486.88;;;22.98;69.45
62926;BME280;55732;52.248;-0.844;2023-06-24T08:48:58;101485.46;;;23.25;68.70
62926;BME280;55732;52.248;-0.844;2023-06-24T08:51:27;101489.16;;;23.63;68.09
62926;BME280;55732;52.248;-0.844;2023-06-24T08:53:55;101480.77;;;24.42;66.53
62926;BME280;55732;52.248;-0.844;2023-06-24T08:56:21;101479.28;;;24.75;65.88
62926;BME280;55732;52.248;-0.844;2023-06-24T08:58:47;101482.02;;;24.94;65.37
62926;BME280;55732;52.248;-0.844;2023-06-24T09:01:12;101486.10;;;25.34;64.40
62926;BME280;55732;52.248;-0.844;2023-06-24T09:03:37;101484.69;;;25.37;63.69
62926;BME280;55732;52.248;-0.844;2023-06-24T09:06:03;101480.75;;;25.32;63.76
62926;BME280;55732;52.248;-0.844;2023-06-24T09:08:29;101475.96;;;25.31;63.86
62926;BME280;55732;52.248;-0.844;2023-06-24T09:10:55;101478.27;;;25.28;63.78
62926;BME280;55732;52.248;-0.844;2023-06-24T09:13:35;101480.62;;;25.20;63.50
62926;BME280;55732;52.248;-0.844;2023-06-24T09:16:11;101478.95;;;25.02;63.46
62926;BME280;55732;52.248;-0.844;2023-06-24T09:18:38;101475.10;;;24.88;63.70
62926;BME280;55732;52.248;-0.844;2023-06-24T09:21:03;101474.36;;;24.92;63.33
62926;BME280;55732;52.248;-0.844;2023-06-24T09:23:28;101480.98;;;24.89;63.62
62926;BME280;55732;52.248;-0.844;2023-06-24T09:25:57;101473.09;;;24.80;63.27
62926;BME280;55732;52.248;-0.844;2023-06-24T09:28:28;101471.50;;;24.80;63.69
62926;BME280;55732;52.248;-0.844;2023-06-24T09:31:09;101474.85;;;24.85;63.66
62926;BME280;55732;52.248;-0.844;2023-06-24T09:33:35;101471.44;;;24.89;63.65
62926;BME280;55732;52.248;-0.844;2023-06-24T09:36:03;101475.92;;;24.89;63.44
62926;BME280;55732;52.248;-0.844;2023-06-24T09:38:37;101479.53;;;24.86;63.53
62926;BME280;55732;52.248;-0.844;2023-06-24T09:41:04;101477.33;;;24.82;63.53
62926;BME280;55732;52.248;-0.844;2023-06-24T09:43:34;101477.30;;;24.83;63.32
62926;BME280;55732;52.248;-0.844;2023-06-24T09:46:01;101480.08;;;24.81;63.18
62926;BME280;55732;52.248;-0.844;2023-06-24T09:48:27;101476.01;;;24.79;63.40
62926;BME280;55732;52.248;-0.844;2023-06-24T09:50:55;101469.80;;;24.93;63.48
62926;BME280;55732;52.248;-0.844;2023-06-24T09:53:24;101470.09;;;25.25;62.98
62926;BME280;55732;52.248;-0.844;2023-06-24T09:55:50;101465.80;;;25.62;62.32
62926;BME280;55732;52.248;-0.844;2023-06-24T09:58:18;101463.95;;;25.91;61.42
62926;BME280;55732;52.248;-0.844;2023-06-24T10:00:44;101460.46;;;26.13;60.95
62926;BME280;55732;52.248;-0.844;2023-06-24T10:03:10;101465.56;;;26.26;60.56
62926;BME280;55732;52.248;-0.844;2023-06-24T10:05:36;101458.09;;;26.42;60.18
62926;BME280;55732;52.248;-0.844;2023-06-24T10:08:04;101453.79;;;26.71;59.65
62926;BME280;55732;52.248;-0.844;2023-06-24T10:10:31;101453.23;;;27.01;59.16
62926;BME280;55732;52.248;-0.844;2023-06-24T10:12:56;101450.55;;;27.35;58.36
62926;BME280;55732;52.248;-0.844;2023-06-24T10:15:22;101448.88;;;27.46;57.65
62926;BME280;55732;52.248;-0.844;2023-06-24T10:17:50;101447.60;;;27.46;57.03
62926;BME280;55732;52.248;-0.844;2023-06-24T10:20:24;101447.42;;;27.27;57.23
62926;BME280;55732;52.248;-0.844;2023-06-24T10:22:51;101451.83;;;27.10;57.49
62926;BME280;55732;52.248;-0.844;2023-06-24T10:25:16;101449.39;;;26.99;57.88
62926;BME280;55732;52.248;-0.844;2023-06-24T10:27:43;101450.50;;;27.04;57.75
62926;BME280;55732;52.248;-0.844;2023-06-24T10:30:16;101447.70;;;27.13;57.39
62926;BME280;55732;52.248;-0.844;2023-06-24T10:32:43;101448.63;;;27.18;57.19
62926;BME280;55732;52.248;-0.844;2023-06-24T10:35:22;101442.48;;;27.24;57.36
62926;BME280;55732;52.248;-0.844;2023-06-24T10:37:55;101448.02;;;27.23;56.81
62926;BME280;55732;52.248;-0.844;2023-06-24T10:40:41;101443.07;;;27.30;56.65
62926;BME280;55732;52.248;-0.844;2023-06-24T10:45:53;101440.44;;;27.60;57.19
62926;BME280;55732;52.248;-0.844;2023-06-24T10:48:18;101437.55;;;27.76;56.55
62926;BME280;55732;52.248;-0.844;2023-06-24T10:50:49;101439.98;;;27.89;55.67
62926;BME280;55732;52.248;-0.844;2023-06-24T10:53:15;101434.55;;;27.89;55.21
62926;BME280;55732;52.248;-0.844;2023-06-24T10:55:44;101431.05;;;27.78;54.94
62926;BME280;55732;52.248;-0.844;2023-06-24T10:58:11;101431.76;;;27.60;55.23
62926;BME280;55732;52.248;-0.844;2023-06-24T11:00:38;101431.16;;;27.36;55.54
62926;BME280;55732;52.248;-0.844;2023-06-24T11:03:15;101422.80;;;27.12;56.03
62926;BME280;55732;52.248;-0.844;2023-06-24T11:05:42;101422.34;;;26.91;56.67
62926;BME280;55732;52.248;-0.844;2023-06-24T11:08:08;101424.86;;;26.71;56.77
62926;BME280;55732;52.248;-0.844;2023-06-24T11:10:42;101425.45;;;26.54;57.42
62926;BME280;55732;52.248;-0.844;2023-06-24T11:13:07;101420.69;;;26.42;57.60
62926;BME280;55732;52.248;-0.844;2023-06-24T11:15:33;101420.32;;;26.45;57.44
62926;BME280;55732;52.248;-0.844;2023-06-24T11:18:02;101416.61;;;26.47;57.54
62926;BME280;55732;52.248;-0.844;2023-06-24T11:20:28;101417.40;;;26.46;57.42
62926;BME280;55732;52.248;-0.844;2023-06-24T11:22:53;101420.58;;;26.41;57.54
62926;BME280;55732;52.248;-0.844;2023-06-24T11:25:20;101418.65;;;26.36;57.67
62926;BME280;55732;52.248;-0.844;2023-06-24T11:27:52;101413.71;;;26.34;57.80
62926;BME280;55732;52.248;-0.844;2023-06-24T11:30:21;101412.02;;;26.35;58.01
62926;BME280;55732;52.248;-0.844;2023-06-24T11:32:46;101412.18;;;26.32;58.14
62926;BME280;55732;52.248;-0.844;2023-06-24T11:35:13;101415.95;;;26.25;58.43
62926;BME280;55732;52.248;-0.844;2023-06-24T11:37:46;101414.90;;;26.18;58.44
62926;BME280;55732;52.248;-0.844;2023-06-24T11:40:13;101408.42;;;26.14;58.23
62926;BME280;55732;52.248;-0.844;2023-06-24T11:42:42;101407.64;;;26.12;58.11
62926;BME280;55732;52.248;-0.844;2023-06-24T11:45:11;101403.70;;;26.11;57.94
62926;BME280;55732;52.248;-0.844;2023-06-24T11:47:38;101402.48;;;26.10;58.05
62926;BME280;55732;52.248;-0.844;2023-06-24T11:50:05;101405.70;;;26.18;58.75
62926;BME280;55732;52.248;-0.844;2023-06-24T11:52:38;101404.40;;;26.25;58.24
62926;BME280;55732;52.248;-0.844;2023-06-24T11:55:11;101400.59;;;26.26;57.75
62926;BME280;55732;52.248;-0.844;2023-06-24T12:00:30;101395.95;;;26.74;57.47
62926;BME280;55732;52.248;-0.844;2023-06-24T12:02:57;101399.17;;;27.01;56.70
62926;BME280;55732;52.248;-0.844;2023-06-24T12:05:28;101399.57;;;27.19;56.30
62926;BME280;55732;52.248;-0.844;2023-06-24T12:07:55;101399.41;;;27.38;55.85
62926;BME280;55732;52.248;-0.844;2023-06-24T12:10:22;101394.74;;;27.49;55.66
62926;BME280;55732;52.248;-0.844;2023-06-24T12:12:48;101389.61;;;27.69;55.52
62926;BME280;55732;52.248;-0.844;2023-06-24T12:15:13;101396.11;;;27.82;55.30
62926;BME280;55732;52.248;-0.844;2023-06-24T12:17:39;101396.02;;;27.83;54.77
62926;BME280;55732;52.248;-0.844;2023-06-24T12:20:05;101398.55;;;27.80;54.72
62926;BME280;55732;52.248;-0.844;2023-06-24T12:22:30;101390.10;;;27.88;54.46
62926;BME280;55732;52.248;-0.844;2023-06-24T12:24:55;101382.20;;;28.05;54.80
62926;BME280;55732;52.248;-0.844;2023-06-24T12:27:21;101380.68;;;28.44;54.45
62926;BME280;55732;52.248;-0.844;2023-06-24T12:29:46;101381.18;;;28.61;53.14
62926;BME280;55732;52.248;-0.844;2023-06-24T12:32:12;101375.80;;;28.69;52.53
62926;BME280;55732;52.248;-0.844;2023-06-24T12:34:37;101372.68;;;28.64;52.17
62926;BME280;55732;52.248;-0.844;2023-06-24T12:37:02;101369.19;;;28.59;52.32
62926;BME280;55732;52.248;-0.844;2023-06-24T12:39:28;101373.44;;;28.55;52.06
62926;BME280;55732;52.248;-0.844;2023-06-24T12:41:53;101369.66;;;28.46;51.86
62926;BME280;55732;52.248;-0.844;2023-06-24T12:44:18;101367.80;;;28.39;52.01
62926;BME280;55732;52.248;-0.844;2023-06-24T12:46:44;101366.89;;;28.35;52.02
62926;BME280;55732;52.248;-0.844;2023-06-24T12:49:09;101366.57;;;28.32;52.61
62926;BME280;55732;52.248;-0.844;2023-06-24T12:51:34;101365.28;;;28.35;52.76
62926;BME280;55732;52.248;-0.844;2023-06-24T12:54:00;101366.32;;;28.39;52.65
62926;BME280;55732;52.248;-0.844;2023-06-24T12:56:25;101367.70;;;28.46;52.50